sensor_id;sensor_type;location;lat;lon;timestamp;temperature;humidity
3408;DHT22;1717;50.240;8.406;2022-07-04T00:01:41;22.70;63.00
3408;DHT22;1717;50.240;8.406;2022-07-04T00:04:08;22.70;63.20
3408;DHT22;1717;50.240;8.406;2022-07-04T00:06:34;22.70;63.30
3408;DHT22;1717;50.240;8.406;2022-07-04T00:09:03;22.60;63.30
3408;DHT22;1717;50.240;8.406;2022-07-04T00:11:30;22.60;63.10
3408;DHT22;1717;50.240;8.406;2022-07-04T00:13:57;22.70;63.00
3408;DHT22;1717;50.240;8.406;2022-07-04T00:16:24;22.60;63.00
3408;DHT22;1717;50.240;8.406;2022-07-04T00:18:50;22.60;63.20
3408;DHT22;1717;50.240;8.406;2022-07-04T00:21:17;22.50;63.40
3408;DHT22;1717;50.240;8.406;2022-07-04T00:23:44;22.50;63.00
3408;DHT22;1717;50.240;8.406;2022-07-04T00:26:12;22.50;62.80
3408;DHT22;1717;50.240;8.406;2022-07-04T00:28:39;22.40;64.10
3408;DHT22;1717;50.240;8.406;2022-07-04T00:31:06;22.30;63.30
3408;DHT22;1717;50.240;8.406;2022-07-04T00:33:33;22.30;63.50
3408;DHT22;1717;50.240;8.406;2022-07-04T00:36:00;22.30;63.50
3408;DHT22;1717;50.240;8.406;2022-07-04T00:38:27;22.20;63.60
3408;DHT22;1717;50.240;8.406;2022-07-04T00:40:54;22.20;63.70
3408;DHT22;1717;50.240;8.406;2022-07-04T00:43:23;22.10;63.90
3408;DHT22;1717;50.240;8.406;2022-07-04T00:45:50;22.00;64.20
3408;DHT22;1717;50.240;8.406;2022-07-04T00:48:17;21.90;64.40
3408;DHT22;1717;50.240;8.406;2022-07-04T00:50:44;21.90;64.50
3408;DHT22;1717;50.240;8.406;2022-07-04T00:53:11;21.80;64.60
3408;DHT22;1717;50.240;8.406;2022-07-04T00:55:39;21.80;64.80
3408;DHT22;1717;50.240;8.406;2022-07-04T00:58:06;21.70;65.00
3408;DHT22;1717;50.240;8.406;2022-07-04T01:00:35;21.60;65.20
3408;DHT22;1717;50.240;8.406;2022-07-04T01:03:02;21.60;65.40
3408;DHT22;1717;50.240;8.406;2022-07-04T01:05:28;21.60;65.60
3408;DHT22;1717;50.240;8.406;2022-07-04T01:07:56;21.50;65.90
3408;DHT22;1717;50.240;8.406;2022-07-04T01:10:23;21.40;66.10
3408;DHT22;1717;50.240;8.406;2022-07-04T01:12:50;21.40;66.30
3408;DHT22;1717;50.240;8.406;2022-07-04T01:15:17;21.30;66.30
3408;DHT22;1717;50.240;8.406;2022-07-04T01:17:45;21.20;66.50
3408;DHT22;1717;50.240;8.406;2022-07-04T01:20:14;21.10;66.80
3408;DHT22;1717;50.240;8.406;2022-07-04T01:22:41;21.10;67.20
3408;DHT22;1717;50.240;8.406;2022-07-04T01:25:08;21.00;67.20
3408;DHT22;1717;50.240;8.406;2022-07-04T01:27:35;21.00;67.50
3408;DHT22;1717;50.240;8.406;2022-07-04T01:30:03;21.00;67.90
3408;DHT22;1717;50.240;8.406;2022-07-04T01:32:30;20.90;68.10
3408;DHT22;1717;50.240;8.406;2022-07-04T01:34:56;20.90;68.20
3408;DHT22;1717;50.240;8.406;2022-07-04T01:37:24;20.80;68.40
3408;DHT22;1717;50.240;8.406;2022-07-04T01:39:51;20.80;68.60
3408;DHT22;1717;50.240;8.406;2022-07-04T01:42:18;20.70;68.90
3408;DHT22;1717;50.240;8.406;2022-07-04T01:44:45;20.70;69.10
3408;DHT22;1717;50.240;8.406;2022-07-04T01:47:12;20.70;69.40
3408;DHT22;1717;50.240;8.406;2022-07-04T01:49:39;20.70;69.60
3408;DHT22;1717;50.240;8.406;2022-07-04T01:52:06;20.70;69.70
3408;DHT22;1717;50.240;8.406;2022-07-04T01:54:34;20.50;69.80
3408;DHT22;1717;50.240;8.406;2022-07-04T01:57:01;20.50;70.20
3408;DHT22;1717;50.240;8.406;2022-07-04T01:59:28;20.40;70.50
3408;DHT22;1717;50.240;8.406;2022-07-04T02:02:08;20.50;70.60
3408;DHT22;1717;50.240;8.406;2022-07-04T02:04:35;20.40;70.50
3408;DHT22;1717;50.240;8.406;2022-07-04T02:07:02;20.40;70.90
3408;DHT22;1717;50.240;8.406;2022-07-04T02:09:29;20.30;71.00
3408;DHT22;1717;50.240;8.406;2022-07-04T02:11:58;20.30;72.00
3408;DHT22;1717;50.240;8.406;2022-07-04T02:14:42;20.30;71.40
3408;DHT22;1717;50.240;8.406;2022-07-04T02:17:10;20.20;71.50
3408;DHT22;1717;50.240;8.406;2022-07-04T02:19:37;20.20;71.60
3408;DHT22;1717;50.240;8.406;2022-07-04T02:22:04;20.10;71.90
3408;DHT22;1717;50.240;8.406;2022-07-04T02:24:31;20.10;72.00
3408;DHT22;1717;50.240;8.406;2022-07-04T02:26:59;20.10;72.10
3408;DHT22;1717;50.240;8.406;2022-07-04T02:29:26;20.10;72.30
3408;DHT22;1717;50.240;8.406;2022-07-04T02:31:53;20.00;72.30
3408;DHT22;1717;50.240;8.406;2022-07-04T02:34:20;20.00;72.50
3408;DHT22;1717;50.240;8.406;2022-07-04T02:36:47;20.00;72.60
3408;DHT22;1717;50.240;8.406;2022-07-04T02:39:14;20.00;72.70
3408;DHT22;1717;50.240;8.406;2022-07-04T02:41:41;19.90;72.80
3408;DHT22;1717;50.240;8.406;2022-07-04T02:44:09;19.90;72.90
3408;DHT22;1717;50.240;8.406;2022-07-04T02:46:36;19.90;73.10
3408;DHT22;1717;50.240;8.406;2022-07-04T02:49:04;19.80;73.10
3408;DHT22;1717;50.240;8.406;2022-07-04T02:51:31;19.80;73.50
3408;DHT22;1717;50.240;8.406;2022-07-04T02:53:58;19.70;73.60
3408;DHT22;1717;50.240;8.406;2022-07-04T02:56:25;19.70;73.60
3408;DHT22;1717;50.240;8.406;2022-07-04T02:58:52;19.70;73.80
3408;DHT22;1717;50.240;8.406;2022-07-04T03:01:20;19.70;73.80
3408;DHT22;1717;50.240;8.406;2022-07-04T03:03:47;19.60;73.70
3408;DHT22;1717;50.240;8.406;2022-07-04T03:06:14;19.60;73.90
3408;DHT22;1717;50.240;8.406;2022-07-04T03:08:41;19.50;73.90
3408;DHT22;1717;50.240;8.406;2022-07-04T03:11:08;19.50;74.20
3408;DHT22;1717;50.240;8.406;2022-07-04T03:13:36;19.40;74.20
3408;DHT22;1717;50.240;8.406;2022-07-04T03:16:03;19.40;74.40
3408;DHT22;1717;50.240;8.406;2022-07-04T03:18:31;19.40;74.60
3408;DHT22;1717;50.240;8.406;2022-07-04T03:20:58;19.30;74.70
3408;DHT22;1717;50.240;8.406;2022-07-04T03:23:25;19.30;75.00
3408;DHT22;1717;50.240;8.406;2022-07-04T03:25:52;19.30;75.00
3408;DHT22;1717;50.240;8.406;2022-07-04T03:28:18;19.30;75.40
3408;DHT22;1717;50.240;8.406;2022-07-04T03:30:45;19.20;75.30
3408;DHT22;1717;50.240;8.406;2022-07-04T03:33:12;19.30;75.40
3408;DHT22;1717;50.240;8.406;2022-07-04T03:35:40;19.30;75.60
3408;DHT22;1717;50.240;8.406;2022-07-04T03:38:07;19.20;75.40
3408;DHT22;1717;50.240;8.406;2022-07-04T03:40:34;19.20;75.50
3408;DHT22;1717;50.240;8.406;2022-07-04T03:43:02;19.20;75.60
3408;DHT22;1717;50.240;8.406;2022-07-04T03:45:29;19.20;76.10
3408;DHT22;1717;50.240;8.406;2022-07-04T03:47:56;19.10;76.10
3408;DHT22;1717;50.240;8.406;2022-07-04T03:50:23;19.10;76.10
3408;DHT22;1717;50.240;8.406;2022-07-04T03:52:51;19.10;76.30
3408;DHT22;1717;50.240;8.406;2022-07-04T03:55:18;19.10;76.20
3408;DHT22;1717;50.240;8.406;2022-07-04T03:57:45;19.10;76.20
3408;DHT22;1717;50.240;8.406;2022-07-04T04:00:12;19.10;76.40
3408;DHT22;1717;50.240;8.406;2022-07-04T04:02:39;19.00;76.30
3408;DHT22;1717;50.240;8.406;2022-07-04T04:05:07;19.00;76.40
3408;DHT22;1717;50.240;8.406;2022-07-04T04:07:54;19.00;76.40
3408;DHT22;1717;50.240;8.406;2022-07-04T04:10:21;19.00;76.70
3408;DHT22;1717;50.240;8.406;2022-07-04T04:12:48;18.90;76.90
3408;DHT22;1717;50.240;8.406;2022-07-04T04:15:15;18.90;77.00
3408;DHT22;1717;50.240;8.406;2022-07-04T04:17:42;19.00;77.30
3408;DHT22;1717;50.240;8.406;2022-07-04T04:20:09;18.90;77.00
3408;DHT22;1717;50.240;8.406;2022-07-04T04:22:36;18.90;77.10
3408;DHT22;1717;50.240;8.406;2022-07-04T04:25:05;19.00;77.20
3408;DHT22;1717;50.240;8.406;2022-07-04T04:27:32;18.90;77.30
3408;DHT22;1717;50.240;8.406;2022-07-04T04:29:59;18.90;77.40
3408;DHT22;1717;50.240;8.406;2022-07-04T04:32:26;18.90;77.70
3408;DHT22;1717;50.240;8.406;2022-07-04T04:34:53;18.80;77.60
3408;DHT22;1717;50.240;8.406;2022-07-04T04:37:20;18.80;77.60
3408;DHT22;1717;50.240;8.406;2022-07-04T04:39:47;18.80;77.80
3408;DHT22;1717;50.240;8.406;2022-07-04T04:42:15;18.70;77.90
3408;DHT22;1717;50.240;8.406;2022-07-04T04:44:42;18.70;78.20
3408;DHT22;1717;50.240;8.406;2022-07-04T04:47:09;18.80;78.30
3408;DHT22;1717;50.240;8.406;2022-07-04T04:49:36;18.70;78.40
3408;DHT22;1717;50.240;8.406;2022-07-04T04:52:03;18.70;78.30
3408;DHT22;1717;50.240;8.406;2022-07-04T04:54:31;18.80;78.30
3408;DHT22;1717;50.240;8.406;2022-07-04T04:56:58;18.70;78.30
3408;DHT22;1717;50.240;8.406;2022-07-04T04:59:27;18.80;78.50
3408;DHT22;1717;50.240;8.406;2022-07-04T05:01:54;18.80;78.60
3408;DHT22;1717;50.240;8.406;2022-07-04T05:04:21;18.80;78.70
3408;DHT22;1717;50.240;8.406;2022-07-04T05:06:49;18.70;78.50
3408;DHT22;1717;50.240;8.406;2022-07-04T05:09:15;18.70;78.80
3408;DHT22;1717;50.240;8.406;2022-07-04T05:11:42;18.80;79.00
3408;DHT22;1717;50.240;8.406;2022-07-04T05:14:09;18.70;79.10
3408;DHT22;1717;50.240;8.406;2022-07-04T05:16:38;18.70;79.30
3408;DHT22;1717;50.240;8.406;2022-07-04T05:19:04;18.70;79.20
3408;DHT22;1717;50.240;8.406;2022-07-04T05:21:31;18.70;79.20
3408;DHT22;1717;50.240;8.406;2022-07-04T05:23:58;18.70;79.20
3408;DHT22;1717;50.240;8.406;2022-07-04T05:26:25;18.60;79.40
3408;DHT22;1717;50.240;8.406;2022-07-04T05:28:52;18.70;79.60
3408;DHT22;1717;50.240;8.406;2022-07-04T05:31:21;18.60;79.70
3408;DHT22;1717;50.240;8.406;2022-07-04T05:33:51;18.80;80.00
3408;DHT22;1717;50.240;8.406;2022-07-04T05:36:20;18.70;80.10
3408;DHT22;1717;50.240;8.406;2022-07-04T05:38:47;18.60;80.00
3408;DHT22;1717;50.240;8.406;2022-07-04T05:41:14;18.60;79.90
3408;DHT22;1717;50.240;8.406;2022-07-04T05:43:40;18.60;80.30
3408;DHT22;1717;50.240;8.406;2022-07-04T05:46:07;18.60;80.30
3408;DHT22;1717;50.240;8.406;2022-07-04T05:48:34;18.60;80.40
3408;DHT22;1717;50.240;8.406;2022-07-04T05:51:03;18.60;80.50
3408;DHT22;1717;50.240;8.406;2022-07-04T05:53:30;18.60;80.70
3408;DHT22;1717;50.240;8.406;2022-07-04T05:55:57;18.60;80.80
3408;DHT22;1717;50.240;8.406;2022-07-04T05:58:24;18.60;81.00
3408;DHT22;1717;50.240;8.406;2022-07-04T06:00:51;18.60;81.00
3408;DHT22;1717;50.240;8.406;2022-07-04T06:03:18;18.60;81.40
3408;DHT22;1717;50.240;8.406;2022-07-04T06:05:45;18.60;81.80
3408;DHT22;1717;50.240;8.406;2022-07-04T06:08:13;18.60;81.80
3408;DHT22;1717;50.240;8.406;2022-07-04T06:10:40;18.60;81.90
3408;DHT22;1717;50.240;8.406;2022-07-04T06:13:07;18.70;83.00
3408;DHT22;1717;50.240;8.406;2022-07-04T06:15:33;18.80;82.00
3408;DHT22;1717;50.240;8.406;2022-07-04T06:18:00;18.90;82.10
3408;DHT22;1717;50.240;8.406;2022-07-04T06:20:28;19.00;82.00
3408;DHT22;1717;50.240;8.406;2022-07-04T06:22:55;19.10;81.90
3408;DHT22;1717;50.240;8.406;2022-07-04T06:25:23;19.20;81.60
3408;DHT22;1717;50.240;8.406;2022-07-04T06:27:50;19.30;81.70
3408;DHT22;1717;50.240;8.406;2022-07-04T06:30:19;19.40;81.40
3408;DHT22;1717;50.240;8.406;2022-07-04T06:32:48;19.50;81.10
3408;DHT22;1717;50.240;8.406;2022-07-04T06:35:19;19.60;81.10
3408;DHT22;1717;50.240;8.406;2022-07-04T06:38:04;19.70;81.60
3408;DHT22;1717;50.240;8.406;2022-07-04T06:40:33;19.80;80.70
3408;DHT22;1717;50.240;8.406;2022-07-04T06:43:00;19.90;80.40
3408;DHT22;1717;50.240;8.406;2022-07-04T06:45:27;19.90;79.80
3408;DHT22;1717;50.240;8.406;2022-07-04T06:47:54;20.00;79.30
3408;DHT22;1717;50.240;8.406;2022-07-04T06:50:21;20.10;78.70
3408;DHT22;1717;50.240;8.406;2022-07-04T06:52:48;20.20;77.10
3408;DHT22;1717;50.240;8.406;2022-07-04T06:55:17;20.30;76.10
3408;DHT22;1717;50.240;8.406;2022-07-04T06:57:45;20.40;75.20
3408;DHT22;1717;50.240;8.406;2022-07-04T07:00:13;20.50;75.20
3408;DHT22;1717;50.240;8.406;2022-07-04T07:02:40;20.60;74.40
3408;DHT22;1717;50.240;8.406;2022-07-04T07:05:07;20.70;73.30
3408;DHT22;1717;50.240;8.406;2022-07-04T07:07:34;20.80;73.00
3408;DHT22;1717;50.240;8.406;2022-07-04T07:10:01;20.90;73.00
3408;DHT22;1717;50.240;8.406;2022-07-04T07:12:31;21.00;72.30
3408;DHT22;1717;50.240;8.406;2022-07-04T07:15:00;21.10;71.50
3408;DHT22;1717;50.240;8.406;2022-07-04T07:17:28;21.20;71.10
3408;DHT22;1717;50.240;8.406;2022-07-04T07:19:55;21.30;70.70
3408;DHT22;1717;50.240;8.406;2022-07-04T07:22:22;21.40;70.20
3408;DHT22;1717;50.240;8.406;2022-07-04T07:24:49;21.50;69.20
3408;DHT22;1717;50.240;8.406;2022-07-04T07:27:16;21.60;68.10
3408;DHT22;1717;50.240;8.406;2022-07-04T07:29:43;21.60;67.70
3408;DHT22;1717;50.240;8.406;2022-07-04T07:32:12;21.70;67.10
3408;DHT22;1717;50.240;8.406;2022-07-04T07:34:38;21.80;66.90
3408;DHT22;1717;50.240;8.406;2022-07-04T07:37:06;21.90;66.70
3408;DHT22;1717;50.240;8.406;2022-07-04T07:39:33;22.00;66.30
3408;DHT22;1717;50.240;8.406;2022-07-04T07:42:00;22.00;66.00
3408;DHT22;1717;50.240;8.406;2022-07-04T07:44:27;22.10;65.40
3408;DHT22;1717;50.240;8.406;2022-07-04T07:46:54;22.20;65.20
3408;DHT22;1717;50.240;8.406;2022-07-04T07:49:23;22.20;65.20
3408;DHT22;1717;50.240;8.406;2022-07-04T07:51:49;22.20;64.80
3408;DHT22;1717;50.240;8.406;2022-07-04T07:54:16;22.30;64.50
3408;DHT22;1717;50.240;8.406;2022-07-04T07:56:44;22.30;64.30
3408;DHT22;1717;50.240;8.406;2022-07-04T07:59:11;22.40;63.30
3408;DHT22;1717;50.240;8.406;2022-07-04T08:01:38;22.40;63.10
3408;DHT22;1717;50.240;8.406;2022-07-04T08:04:05;22.50;62.90
3408;DHT22;1717;50.240;8.406;2022-07-04T08:06:51;22.50;62.50
3408;DHT22;1717;50.240;8.406;2022-07-04T08:09:18;22.60;61.60
3408;DHT22;1717;50.240;8.406;2022-07-04T08:11:45;22.60;61.20
3408;DHT22;1717;50.240;8.406;2022-07-04T08:14:12;22.60;60.70
3408;DHT22;1717;50.240;8.406;2022-07-04T08:16:39;22.70;60.50
3408;DHT22;1717;50.240;8.406;2022-07-04T08:19:06;22.80;59.80
3408;DHT22;1717;50.240;8.406;2022-07-04T08:21:33;22.90;59.20
3408;DHT22;1717;50.240;8.406;2022-07-04T08:24:02;22.90;58.70
3408;DHT22;1717;50.240;8.406;2022-07-04T08:26:29;23.00;58.30
3408;DHT22;1717;50.240;8.406;2022-07-04T08:28:56;23.00;58.20
3408;DHT22;1717;50.240;8.406;2022-07-04T08:31:25;23.10;57.70
3408;DHT22;1717;50.240;8.406;2022-07-04T08:33:52;23.10;57.60
3408;DHT22;1717;50.240;8.406;2022-07-04T08:36:19;23.20;57.10
3408;DHT22;1717;50.240;8.406;2022-07-04T08:38:46;23.20;56.70
3408;DHT22;1717;50.240;8.406;2022-07-04T08:41:15;23.20;56.60
3408;DHT22;1717;50.240;8.406;2022-07-04T08:43:42;23.30;56.50
3408;DHT22;1717;50.240;8.406;2022-07-04T08:46:11;23.30;56.40
3408;DHT22;1717;50.240;8.406;2022-07-04T08:48:41;23.40;55.40
3408;DHT22;1717;50.240;8.406;2022-07-04T08:51:14;23.40;55.40
3408;DHT22;1717;50.240;8.406;2022-07-04T08:53:48;23.50;55.30
3408;DHT22;1717;50.240;8.406;2022-07-04T08:56:19;23.50;54.90
3408;DHT22;1717;50.240;8.406;2022-07-04T08:59:04;23.50;54.70
3408;DHT22;1717;50.240;8.406;2022-07-04T09:01:32;23.50;54.30
3408;DHT22;1717;50.240;8.406;2022-07-04T09:04:00;23.60;54.20
3408;DHT22;1717;50.240;8.406;2022-07-04T09:06:28;23.60;53.70
3408;DHT22;1717;50.240;8.406;2022-07-04T09:08:56;23.70;52.60
3408;DHT22;1717;50.240;8.406;2022-07-04T09:11:25;23.80;52.70
3408;DHT22;1717;50.240;8.406;2022-07-04T09:13:52;23.90;52.50
3408;DHT22;1717;50.240;8.406;2022-07-04T09:16:19;23.90;52.50
3408;DHT22;1717;50.240;8.406;2022-07-04T09:18:45;24.00;51.70
3408;DHT22;1717;50.240;8.406;2022-07-04T09:21:12;24.00;51.80
3408;DHT22;1717;50.240;8.406;2022-07-04T09:23:41;24.10;51.70
3408;DHT22;1717;50.240;8.406;2022-07-04T09:26:12;24.20;51.80
3408;DHT22;1717;50.240;8.406;2022-07-04T09:28:42;24.20;51.60
3408;DHT22;1717;50.240;8.406;2022-07-04T09:31:17;24.30;51.00
3408;DHT22;1717;50.240;8.406;2022-07-04T09:33:50;24.30;51.80
3408;DHT22;1717;50.240;8.406;2022-07-04T09:36:20;24.30;50.50
3408;DHT22;1717;50.240;8.406;2022-07-04T09:39:10;24.30;50.00
3408;DHT22;1717;50.240;8.406;2022-07-04T09:41:54;24.40;50.30
3408;DHT22;1717;50.240;8.406;2022-07-04T09:44:23;24.40;50.00
3408;DHT22;1717;50.240;8.406;2022-07-04T09:46:50;24.40;49.30
3408;DHT22;1717;50.240;8.406;2022-07-04T09:49:21;24.40;49.60
3408;DHT22;1717;50.240;8.406;2022-07-04T09:51:49;24.40;49.60
3408;DHT22;1717;50.240;8.406;2022-07-04T09:54:20;24.50;49.60
3408;DHT22;1717;50.240;8.406;2022-07-04T09:56:48;24.50;49.40
3408;DHT22;1717;50.240;8.406;2022-07-04T09:59:16;24.60;49.40
3408;DHT22;1717;50.240;8.406;2022-07-04T10:01:45;24.60;49.30
3408;DHT22;1717;50.240;8.406;2022-07-04T10:04:12;24.60;49.00
3408;DHT22;1717;50.240;8.406;2022-07-04T10:06:43;24.70;48.50
3408;DHT22;1717;50.240;8.406;2022-07-04T10:09:12;24.80;48.30
3408;DHT22;1717;50.240;8.406;2022-07-04T10:11:41;24.80;48.30
3408;DHT22;1717;50.240;8.406;2022-07-04T10:14:10;24.90;48.30
3408;DHT22;1717;50.240;8.406;2022-07-04T10:16:39;24.90;48.30
3408;DHT22;1717;50.240;8.406;2022-07-04T10:19:08;25.00;48.20
3408;DHT22;1717;50.240;8.406;2022-07-04T10:21:35;25.00;48.20
3408;DHT22;1717;50.240;8.406;2022-07-04T10:24:03;25.10;47.80
3408;DHT22;1717;50.240;8.406;2022-07-04T10:26:31;25.20;48.10
3408;DHT22;1717;50.240;8.406;2022-07-04T10:28:58;25.20;47.90
3408;DHT22;1717;50.240;8.406;2022-07-04T10:31:27;25.20;47.90
3408;DHT22;1717;50.240;8.406;2022-07-04T10:33:57;25.30;47.90
3408;DHT22;1717;50.240;8.406;2022-07-04T10:36:26;25.30;47.40
3408;DHT22;1717;50.240;8.406;2022-07-04T10:38:57;25.40;47.60
3408;DHT22;1717;50.240;8.406;2022-07-04T10:41:27;25.40;47.50
3408;DHT22;1717;50.240;8.406;2022-07-04T10:44:00;25.50;47.40
3408;DHT22;1717;50.240;8.406;2022-07-04T10:46:37;25.50;47.00
3408;DHT22;1717;50.240;8.406;2022-07-04T10:49:18;25.60;46.90
3408;DHT22;1717;50.240;8.406;2022-07-04T10:51:48;25.60;46.30
3408;DHT22;1717;50.240;8.406;2022-07-04T10:54:17;25.70;46.60
3408;DHT22;1717;50.240;8.406;2022-07-04T10:56:52;25.70;46.50
3408;DHT22;1717;50.240;8.406;2022-07-04T10:59:22;25.70;46.70
3408;DHT22;1717;50.240;8.406;2022-07-04T11:02:27;25.80;46.50
3408;DHT22;1717;50.240;8.406;2022-07-04T11:04:59;25.80;46.70
3408;DHT22;1717;50.240;8.406;2022-07-04T11:08:01;25.90;46.00
3408;DHT22;1717;50.240;8.406;2022-07-04T11:10:32;25.90;45.20
3408;DHT22;1717;50.240;8.406;2022-07-04T11:13:08;25.80;45.10
3408;DHT22;1717;50.240;8.406;2022-07-04T11:16:13;25.90;44.60
3408;DHT22;1717;50.240;8.406;2022-07-04T11:18:42;26.00;43.50
3408;DHT22;1717;50.240;8.406;2022-07-04T11:21:21;26.00;44.20
3408;DHT22;1717;50.240;8.406;2022-07-04T11:23:54;26.10;44.60
3408;DHT22;1717;50.240;8.406;2022-07-04T11:26:22;26.10;44.00
3408;DHT22;1717;50.240;8.406;2022-07-04T11:28:49;26.20;43.20
3408;DHT22;1717;50.240;8.406;2022-07-04T11:31:16;26.30;43.00
3408;DHT22;1717;50.240;8.406;2022-07-04T11:33:44;26.30;42.60
3408;DHT22;1717;50.240;8.406;2022-07-04T11:36:13;26.30;42.40
3408;DHT22;1717;50.240;8.406;2022-07-04T11:38:46;26.40;42.30
3408;DHT22;1717;50.240;8.406;2022-07-04T11:41:16;26.40;41.60
3408;DHT22;1717;50.240;8.406;2022-07-04T11:44:16;26.50;41.80
3408;DHT22;1717;50.240;8.406;2022-07-04T11:47:13;26.50;41.70
3408;DHT22;1717;50.240;8.406;2022-07-04T11:49:44;26.60;41.60
3408;DHT22;1717;50.240;8.406;2022-07-04T11:52:12;26.60;41.60
3408;DHT22;1717;50.240;8.406;2022-07-04T11:54:40;26.70;42.00
3408;DHT22;1717;50.240;8.406;2022-07-04T11:57:14;26.80;42.20
3408;DHT22;1717;50.240;8.406;2022-07-04T11:59:42;26.80;42.30
3408;DHT22;1717;50.240;8.406;2022-07-04T12:02:13;26.80;42.20
3408;DHT22;1717;50.240;8.406;2022-07-04T12:04:41;26.90;42.40
3408;DHT22;1717;50.240;8.406;2022-07-04T12:07:09;27.00;42.40
3408;DHT22;1717;50.240;8.406;2022-07-04T12:09:36;27.00;42.20
3408;DHT22;1717;50.240;8.406;2022-07-04T12:12:04;27.10;42.20
3408;DHT22;1717;50.240;8.406;2022-07-04T12:14:32;27.10;42.00
3408;DHT22;1717;50.240;8.406;2022-07-04T12:17:10;27.20;41.90
3408;DHT22;1717;50.240;8.406;2022-07-04T12:19:37;27.20;42.20
3408;DHT22;1717;50.240;8.406;2022-07-04T12:22:04;27.30;42.20
3408;DHT22;1717;50.240;8.406;2022-07-04T12:24:41;27.40;42.10
3408;DHT22;1717;50.240;8.406;2022-07-04T12:27:17;27.40;42.20
3408;DHT22;1717;50.240;8.406;2022-07-04T12:29:49;27.50;42.20
3408;DHT22;1717;50.240;8.406;2022-07-04T12:32:17;27.60;42.20
3408;DHT22;1717;50.240;8.406;2022-07-04T12:34:43;27.60;42.60
3408;DHT22;1717;50.240;8.406;2022-07-04T12:37:12;27.70;42.20
3408;DHT22;1717;50.240;8.406;2022-07-04T12:39:40;27.70;42.10
3408;DHT22;1717;50.240;8.406;2022-07-04T12:42:10;27.80;42.00
3408;DHT22;1717;50.240;8.406;2022-07-04T12:44:39;27.80;41.70
3408;DHT22;1717;50.240;8.406;2022-07-04T12:47:09;27.80;41.80
3408;DHT22;1717;50.240;8.406;2022-07-04T12:49:36;27.90;41.70
3408;DHT22;1717;50.240;8.406;2022-07-04T12:52:08;28.00;41.80
3408;DHT22;1717;50.240;8.406;2022-07-04T12:54:36;28.10;41.70
3408;DHT22;1717;50.240;8.406;2022-07-04T12:57:09;28.10;41.50
3408;DHT22;1717;50.240;8.406;2022-07-04T12:59:37;28.20;41.20
3408;DHT22;1717;50.240;8.406;2022-07-04T13:02:05;28.30;41.40
3408;DHT22;1717;50.240;8.406;2022-07-04T13:04:34;28.30;41.20
3408;DHT22;1717;50.240;8.406;2022-07-04T13:07:12;28.30;41.30
3408;DHT22;1717;50.240;8.406;2022-07-04T13:09:40;28.40;41.20
3408;DHT22;1717;50.240;8.406;2022-07-04T13:12:08;28.40;41.50
3408;DHT22;1717;50.240;8.406;2022-07-04T13:14:54;28.50;41.30
3408;DHT22;1717;50.240;8.406;2022-07-04T13:17:22;28.50;41.40
3408;DHT22;1717;50.240;8.406;2022-07-04T13:19:51;28.60;41.20
3408;DHT22;1717;50.240;8.406;2022-07-04T13:22:19;28.70;40.70
3408;DHT22;1717;50.240;8.406;2022-07-04T13:24:46;28.70;40.60
3408;DHT22;1717;50.240;8.406;2022-07-04T13:27:13;28.70;40.60
3408;DHT22;1717;50.240;8.406;2022-07-04T13:29:40;28.80;40.80
3408;DHT22;1717;50.240;8.406;2022-07-04T13:32:07;28.80;41.00
3408;DHT22;1717;50.240;8.406;2022-07-04T13:34:35;28.90;40.90
3408;DHT22;1717;50.240;8.406;2022-07-04T13:37:04;29.00;40.70
3408;DHT22;1717;50.240;8.406;2022-07-04T13:39:31;29.00;39.90
3408;DHT22;1717;50.240;8.406;2022-07-04T13:41:58;29.00;40.10
3408;DHT22;1717;50.240;8.406;2022-07-04T13:44:25;29.10;40.00
3408;DHT22;1717;50.240;8.406;2022-07-04T13:46:52;29.20;40.10
3408;DHT22;1717;50.240;8.406;2022-07-04T13:49:19;29.20;40.10
3408;DHT22;1717;50.240;8.406;2022-07-04T13:51:45;29.30;40.20
3408;DHT22;1717;50.240;8.406;2022-07-04T13:54:14;29.30;39.70
3408;DHT22;1717;50.240;8.406;2022-07-04T13:56:41;29.30;39.00
3408;DHT22;1717;50.240;8.406;2022-07-04T13:59:08;29.40;38.90
3408;DHT22;1717;50.240;8.406;2022-07-04T14:01:35;29.40;39.80
3408;DHT22;1717;50.240;8.406;2022-07-04T14:04:03;29.50;39.80
3408;DHT22;1717;50.240;8.406;2022-07-04T14:06:30;29.50;39.60
3408;DHT22;1717;50.240;8.406;2022-07-04T14:08:58;29.60;39.60
3408;DHT22;1717;50.240;8.406;2022-07-04T14:11:26;29.60;39.40
3408;DHT22;1717;50.240;8.406;2022-07-04T14:13:53;29.70;39.20
3408;DHT22;1717;50.240;8.406;2022-07-04T14:16:20;29.70;39.00
3408;DHT22;1717;50.240;8.406;2022-07-04T14:18:47;29.80;38.90
3408;DHT22;1717;50.240;8.406;2022-07-04T14:21:14;29.80;38.70
3408;DHT22;1717;50.240;8.406;2022-07-04T14:23:41;29.90;38.50
3408;DHT22;1717;50.240;8.406;2022-07-04T14:26:09;29.90;38.60
3408;DHT22;1717;50.240;8.406;2022-07-04T14:28:38;29.90;38.80
3408;DHT22;1717;50.240;8.406;2022-07-04T14:31:05;30.00;38.80
3408;DHT22;1717;50.240;8.406;2022-07-04T14:33:32;30.00;38.80
3408;DHT22;1717;50.240;8.406;2022-07-04T14:36:00;30.00;38.70
3408;DHT22;1717;50.240;8.406;2022-07-04T14:38:28;30.10;38.60
3408;DHT22;1717;50.240;8.406;2022-07-04T14:40:55;30.10;38.60
3408;DHT22;1717;50.240;8.406;2022-07-04T14:43:39;30.10;38.50
3408;DHT22;1717;50.240;8.406;2022-07-04T14:46:07;30.10;38.30
3408;DHT22;1717;50.240;8.406;2022-07-04T14:48:34;30.20;38.00
3408;DHT22;1717;50.240;8.406;2022-07-04T14:51:02;30.20;37.60
3408;DHT22;1717;50.240;8.406;2022-07-04T14:53:29;30.20;37.60
3408;DHT22;1717;50.240;8.406;2022-07-04T14:55:56;30.20;37.50
3408;DHT22;1717;50.240;8.406;2022-07-04T14:58:23;30.20;37.80
3408;DHT22;1717;50.240;8.406;2022-07-04T15:00:51;30.20;37.70
3408;DHT22;1717;50.240;8.406;2022-07-04T15:03:18;30.20;37.90
3408;DHT22;1717;50.240;8.406;2022-07-04T15:05:45;30.20;38.00
3408;DHT22;1717;50.240;8.406;2022-07-04T15:08:12;30.20;37.90
3408;DHT22;1717;50.240;8.406;2022-07-04T15:10:39;30.20;37.70
3408;DHT22;1717;50.240;8.406;2022-07-04T15:13:06;30.20;37.70
3408;DHT22;1717;50.240;8.406;2022-07-04T15:15:33;30.30;37.50
3408;DHT22;1717;50.240;8.406;2022-07-04T15:18:02;30.20;37.70
3408;DHT22;1717;50.240;8.406;2022-07-04T15:20:29;30.30;37.50
3408;DHT22;1717;50.240;8.406;2022-07-04T15:23:13;30.30;37.10
3408;DHT22;1717;50.240;8.406;2022-07-04T15:25:58;30.20;36.70
3408;DHT22;1717;50.240;8.406;2022-07-04T15:28:26;30.20;36.90
3408;DHT22;1717;50.240;8.406;2022-07-04T15:30:53;30.20;37.10
3408;DHT22;1717;50.240;8.406;2022-07-04T15:33:21;30.20;37.20
3408;DHT22;1717;50.240;8.406;2022-07-04T15:35:53;30.20;37.40
3408;DHT22;1717;50.240;8.406;2022-07-04T15:38:20;30.20;37.10
3408;DHT22;1717;50.240;8.406;2022-07-04T15:40:47;30.20;37.10
3408;DHT22;1717;50.240;8.406;2022-07-04T15:43:14;30.20;37.00
3408;DHT22;1717;50.240;8.406;2022-07-04T15:45:41;30.20;37.10
3408;DHT22;1717;50.240;8.406;2022-07-04T15:48:08;30.10;36.90
3408;DHT22;1717;50.240;8.406;2022-07-04T15:50:37;30.10;36.80
3408;DHT22;1717;50.240;8.406;2022-07-04T15:53:04;30.10;36.80
3408;DHT22;1717;50.240;8.406;2022-07-04T15:55:31;30.10;36.70
3408;DHT22;1717;50.240;8.406;2022-07-04T15:57:58;30.10;36.70
3408;DHT22;1717;50.240;8.406;2022-07-04T16:00:25;30.10;36.30
3408;DHT22;1717;50.240;8.406;2022-07-04T16:02:52;30.10;35.90
3408;DHT22;1717;50.240;8.406;2022-07-04T16:05:19;30.00;36.10
3408;DHT22;1717;50.240;8.406;2022-07-04T16:07:48;30.00;36.40
3408;DHT22;1717;50.240;8.406;2022-07-04T16:10:15;30.00;36.70
3408;DHT22;1717;50.240;8.406;2022-07-04T16:12:42;30.00;36.50